Time;durP1;ratioP1;P1;durP2;ratioP2;P2;SDS_P1;SDS_P2;PMS_P1;PMS_P2;Temp;Humidity;BMP_temperature;BMP_pressure;BME280_temperature;BME280_humidity;BME280_pressure;Samples;Min_cycle;Max_cycle;Signal;HPM_P1;HPM_P2
2022/03/16 00:00:23;;;;;;;13.82;12.07;;;5.60;99.90;;;;;;4916089;29;20087;-43
2022/03/16 00:02:49;;;;;;;13.40;11.35;;;5.50;99.90;;;;;;4916340;29;20066;-45
2022/03/16 00:05:16;;;;;;;20.40;11.95;;;5.50;99.90;;;;;;4916120;29;20032;-48
2022/03/16 00:07:42;;;;;;;11.93;10.57;;;5.40;99.90;;;;;;4917034;29;20441;-45
2022/03/16 00:10:09;;;;;;;26.05;12.05;;;5.30;99.90;;;;;;4916476;29;20070;-43
2022/03/16 00:12:35;;;;;;;58.00;11.88;;;5.20;99.90;;;;;;4916324;29;20107;-45
2022/03/16 00:15:01;;;;;;;18.17;13.38;;;5.20;99.90;;;;;;4916975;29;20037;-44
2022/03/16 00:17:26;;;;;;;23.15;12.35;;;5.00;99.90;;;;;;4916577;29;20028;-45
2022/03/16 00:19:52;;;;;;;21.63;11.93;;;4.90;99.90;;;;;;4916133;29;20451;-44
2022/03/16 00:22:17;;;;;;;73.80;14.70;;;4.90;99.90;;;;;;4915849;29;20028;-42
2022/03/16 00:24:43;;;;;;;74.53;24.80;;;4.90;99.90;;;;;;4916248;29;20051;-44
2022/03/16 00:27:08;;;;;;;39.10;14.45;;;4.80;99.90;;;;;;4916394;29;20028;-42
2022/03/16 00:29:34;;;;;;;99.18;16.48;;;4.70;99.90;;;;;;4915988;29;20489;-46
2022/03/16 00:32:00;;;;;;;77.18;17.25;;;4.70;99.90;;;;;;4916036;29;20054;-48
2022/03/16 00:34:26;;;;;;;287.73;22.27;;;4.70;99.90;;;;;;4916587;29;20072;-41
2022/03/16 00:36:51;;;;;;;368.70;23.60;;;4.70;99.90;;;;;;4915910;29;20092;-44
2022/03/16 00:39:17;;;;;;;156.32;20.60;;;4.60;99.90;;;;;;4916284;29;20036;-45
2022/03/16 00:41:43;;;;;;;78.10;17.45;;;4.60;99.90;;;;;;4916378;29;20123;-48
2022/03/16 00:44:09;;;;;;;207.07;19.65;;;4.60;99.90;;;;;;4915791;29;20020;-46
2022/03/16 00:46:34;;;;;;;226.57;21.92;;;4.60;99.90;;;;;;4914400;29;20036;-44
2022/03/16 00:49:00;;;;;;;267.42;22.65;;;4.60;99.90;;;;;;4915301;29;20395;-47
2022/03/16 00:51:26;;;;;;;156.52;18.73;;;4.60;99.90;;;;;;4915464;29;20103;-47
2022/03/16 00:53:52;;;;;;;85.95;16.60;;;4.70;99.90;;;;;;4915518;29;20064;-52
2022/03/16 00:56:18;;;;;;;130.75;18.92;;;4.60;99.90;;;;;;4913845;29;20032;-42
2022/03/16 00:58:43;;;;;;;199.23;21.15;;;4.60;99.90;;;;;;4915251;29;20087;-44
2022/03/16 01:01:09;;;;;;;212.65;22.95;;;4.60;99.90;;;;;;4914212;29;20028;-44
2022/03/16 01:03:35;;;;;;;226.75;23.10;;;4.60;99.90;;;;;;4915771;29;20029;-47
2022/03/16 01:06:02;;;;;;;301.88;24.30;;;4.60;99.90;;;;;;4915337;29;20032;-45
2022/03/16 01:08:28;;;;;;;270.65;24.85;;;4.50;99.90;;;;;;4914986;29;20091;-42
2022/03/16 01:10:54;;;;;;;164.93;22.63;;;4.50;99.90;;;;;;4915433;29;20032;-46
2022/03/16 01:13:20;;;;;;;100.03;22.13;;;4.50;99.90;;;;;;4915034;29;20060;-48
2022/03/16 01:15:45;;;;;;;140.57;22.10;;;4.50;99.90;;;;;;4915277;29;20111;-47
2022/03/16 01:18:11;;;;;;;161.73;22.33;;;4.40;99.90;;;;;;4914953;29;20036;-48
2022/03/16 01:20:36;;;;;;;51.70;20.40;;;4.40;99.90;;;;;;4915517;29;20030;-45
2022/03/16 01:23:02;;;;;;;185.93;23.25;;;4.30;99.90;;;;;;4915322;29;20024;-41
2022/03/16 01:25:28;;;;;;;96.38;20.98;;;4.30;99.90;;;;;;4915425;29;20076;-48
2022/03/16 01:27:54;;;;;;;77.85;19.30;;;4.40;99.90;;;;;;4913701;29;20123;-47
2022/03/16 01:30:19;;;;;;;74.82;18.58;;;4.30;99.90;;;;;;4914254;29;20051;-49
2022/03/16 01:32:45;;;;;;;51.17;17.38;;;4.20;99.90;;;;;;4915417;29;20024;-44
2022/03/16 01:35:11;;;;;;;88.07;18.65;;;4.20;99.90;;;;;;4915165;29;20403;-41
2022/03/16 01:37:37;;;;;;;44.38;17.23;;;4.10;99.90;;;;;;4914853;29;20529;-46
2022/03/16 01:40:05;;;;;;;82.32;17.67;;;4.10;99.90;;;;;;4915169;29;20396;-45
2022/03/16 01:42:31;;;;;;;72.30;19.60;;;4.10;99.90;;;;;;4915818;29;20020;-46
2022/03/16 01:44:57;;;;;;;157.18;19.92;;;4.20;99.90;;;;;;4915345;29;20484;-41
2022/03/16 01:47:24;;;;;;;114.78;18.20;;;4.20;99.90;;;;;;4914643;29;20036;-48
2022/03/16 01:49:53;;;;;;;106.43;19.25;;;4.10;99.90;;;;;;4915197;29;20099;-46
2022/03/16 01:52:21;;;;;;;123.70;19.30;;;3.90;99.90;;;;;;4915000;29;20028;-49
2022/03/16 01:54:47;;;;;;;109.88;20.83;;;3.80;99.90;;;;;;4914993;29;20032;-43
2022/03/16 01:57:13;;;;;;;88.38;20.23;;;3.90;99.90;;;;;;4914937;29;20523;-43
2022/03/16 01:59:40;;;;;;;68.38;20.00;;;3.80;99.90;;;;;;4914867;29;20120;-46
2022/03/16 02:02:06;;;;;;;95.43;23.50;;;3.90;99.90;;;;;;4915210;29;20032;-49
2022/03/16 02:04:32;;;;;;;40.72;22.05;;;3.90;99.90;;;;;;4915061;29;20579;-45
2022/03/16 02:06:59;;;;;;;37.25;23.13;;;3.90;99.90;;;;;;4914836;29;20028;-41
2022/03/16 02:09:25;;;;;;;36.70;25.08;;;4.00;99.90;;;;;;4918121;29;20025;-45
2022/03/16 02:11:51;;;;;;;48.20;26.27;;;4.10;99.90;;;;;;4917720;29;20119;-44
2022/03/16 02:14:19;;;;;;;37.90;24.65;;;4.20;99.90;;;;;;4918281;29;20111;-45
2022/03/16 02:16:46;;;;;;;43.65;25.52;;;4.40;99.90;;;;;;4918120;29;20036;-45
2022/03/16 02:19:12;;;;;;;39.45;25.67;;;4.40;99.90;;;;;;4917862;29;20032;-44
2022/03/16 02:21:40;;;;;;;46.13;28.85;;;4.50;99.90;;;;;;4918211;29;20492;-45
2022/03/16 02:24:06;;;;;;;49.78;29.27;;;4.60;99.90;;;;;;4918143;29;20020;-46
2022/03/16 02:26:32;;;;;;;40.85;27.15;;;4.60;99.90;;;;;;4917929;29;20037;-48
2022/03/16 02:28:58;;;;;;;41.55;26.60;;;4.60;99.90;;;;;;4918000;29;20032;-50
2022/03/16 02:31:25;;;;;;;40.00;26.23;;;4.60;99.90;;;;;;4917949;29;20416;-45
2022/03/16 02:33:50;;;;;;;45.30;27.20;;;4.70;99.90;;;;;;4917745;29;20043;-48
2022/03/16 02:36:16;;;;;;;40.42;26.27;;;4.70;99.90;;;;;;4917708;29;20028;-47
2022/03/16 02:38:42;;;;;;;41.45;25.88;;;4.80;99.90;;;;;;4917454;29;20032;-48
2022/03/16 02:41:07;;;;;;;40.03;25.98;;;4.80;99.90;;;;;;4916285;29;20484;-45
2022/03/16 02:43:33;;;;;;;38.40;26.13;;;4.90;99.90;;;;;;4917692;29;20500;-41
2022/03/16 02:45:59;;;;;;;36.45;24.88;;;4.80;99.90;;;;;;4917691;29;20024;-44
2022/03/16 02:48:24;;;;;;;32.15;23.98;;;4.80;99.90;;;;;;4917489;29;20028;-45
2022/03/16 02:50:51;;;;;;;35.67;23.95;;;4.70;99.90;;;;;;4916317;29;20060;-46
2022/03/16 02:53:17;;;;;;;34.20;25.13;;;4.60;99.90;;;;;;4917426;29;20032;-41
2022/03/16 02:55:44;;;;;;;35.97;24.73;;;4.60;99.90;;;;;;4917275;29;20247;-47
2022/03/16 02:58:14;;;;;;;37.38;25.90;;;4.60;99.90;;;;;;4917146;29;20028;-50
2022/03/16 03:00:39;;;;;;;41.58;26.98;;;4.60;99.90;;;;;;4917554;29;20028;-45
2022/03/16 03:03:05;;;;;;;42.17;27.90;;;4.70;99.90;;;;;;4917348;29;20084;-49
2022/03/16 03:05:31;;;;;;;41.95;26.65;;;4.80;99.90;;;;;;4953325;23;20058;-45
2022/03/16 03:07:56;;;;;;;40.83;27.20;;;4.90;99.90;;;;;;4935944;29;20075;-47
2022/03/16 03:10:22;;;;;;;41.00;27.38;;;4.90;99.90;;;;;;4936775;29;20058;-50
2022/03/16 03:12:48;;;;;;;45.35;29.15;;;4.90;99.90;;;;;;4937024;29;20020;-60
2022/03/16 03:15:15;;;;;;;43.58;28.63;;;5.00;99.90;;;;;;4926263;29;20039;-46
2022/03/16 03:17:41;;;;;;;46.45;28.42;;;5.00;99.90;;;;;;4916197;29;20492;-46
2022/03/16 03:20:08;;;;;;;46.97;29.13;;;5.00;99.90;;;;;;4917707;29;20047;-45
2022/03/16 03:22:33;;;;;;;44.50;29.50;;;5.10;99.90;;;;;;4917735;29;20028;-46
2022/03/16 03:24:59;;;;;;;49.10;30.15;;;5.20;99.90;;;;;;4917325;29;20039;-47
2022/03/16 03:27:25;;;;;;;48.33;30.45;;;5.20;99.90;;;;;;4916118;29;20028;-46
2022/03/16 03:29:50;;;;;;;51.88;31.13;;;5.20;99.90;;;;;;4918273;29;20523;-46
2022/03/16 03:32:16;;;;;;;52.55;31.92;;;5.30;99.90;;;;;;4918478;29;20449;-46
2022/03/16 03:34:46;;;;;;;54.25;31.95;;;5.30;99.90;;;;;;4921057;29;20496;-46
2022/03/16 03:37:15;;;;;;;60.78;34.67;;;5.30;99.90;;;;;;4918848;29;20039;-46
2022/03/16 03:39:41;;;;;;;57.60;35.70;;;5.30;99.90;;;;;;4916359;29;20032;-47
2022/03/16 03:42:07;;;;;;;69.53;35.15;;;5.30;99.90;;;;;;4918382;29;20071;-47
2022/03/16 03:44:32;;;;;;;62.40;37.03;;;5.30;99.90;;;;;;4919302;29;20028;-46
2022/03/16 03:46:58;;;;;;;56.65;33.95;;;5.30;99.90;;;;;;4918190;29;20112;-48
2022/03/16 03:49:23;;;;;;;64.60;36.13;;;5.30;99.90;;;;;;4916946;29;20027;-48
2022/03/16 03:51:49;;;;;;;63.80;36.42;;;5.40;99.90;;;;;;4917221;29;20035;-48
2022/03/16 03:54:14;;;;;;;64.60;38.15;;;5.30;99.90;;;;;;4915289;29;20055;-49
2022/03/16 03:56:40;;;;;;;65.22;35.60;;;5.30;99.90;;;;;;4916435;29;20040;-47
2022/03/16 03:59:05;;;;;;;91.05;38.78;;;5.40;99.90;;;;;;4916211;29;20024;-47
2022/03/16 04:01:31;;;;;;;90.55;40.15;;;5.50;99.90;;;;;;4915761;29;20024;-47
2022/03/16 04:03:56;;;;;;;79.10;38.47;;;5.60;99.90;;;;;;4918627;29;20106;-47
2022/03/16 04:06:22;;;;;;;105.05;39.78;;;5.50;99.90;;;;;;4918609;29;20402;-47
2022/03/16 04:08:47;;;;;;;111.00;39.97;;;5.50;99.90;;;;;;4918539;29;20039;-47
2022/03/16 04:11:13;;;;;;;107.07;39.95;;;5.40;99.90;;;;;;4916380;29;20032;-49
2022/03/16 04:13:39;;;;;;;79.25;39.30;;;5.40;99.90;;;;;;4915628;29;20551;-46
2022/03/16 04:16:04;;;;;;;100.05;39.90;;;5.30;99.90;;;;;;4915822;29;20067;-47
2022/03/16 04:18:30;;;;;;;114.97;43.08;;;5.30;99.90;;;;;;4915838;29;20024;-46
2022/03/16 04:20:55;;;;;;;88.38;40.20;;;5.30;99.90;;;;;;4915945;29;20460;-46
2022/03/16 04:23:21;;;;;;;100.72;40.92;;;5.30;99.90;;;;;;4916110;29;20071;-47
2022/03/16 04:25:47;;;;;;;97.03;42.60;;;5.40;99.90;;;;;;4914627;29;20043;-46
2022/03/16 04:28:12;;;;;;;93.10;43.03;;;5.30;99.90;;;;;;4915577;29;20111;-46
2022/03/16 04:30:38;;;;;;;73.68;39.08;;;5.30;99.90;;;;;;4915367;29;20094;-47
2022/03/16 04:33:03;;;;;;;84.60;40.55;;;5.30;99.90;;;;;;4915966;29;20605;-48
2022/03/16 04:35:29;;;;;;;78.20;39.90;;;5.30;99.90;;;;;;4916132;29;20179;-47
2022/03/16 04:37:55;;;;;;;85.95;43.13;;;5.30;99.90;;;;;;4915365;29;20016;-48
2022/03/16 04:40:20;;;;;;;83.70;40.15;;;5.30;99.90;;;;;;4915732;29;20024;-48
2022/03/16 04:42:46;;;;;;;77.32;38.97;;;5.30;99.90;;;;;;4915701;29;20504;-49
2022/03/16 04:45:12;;;;;;;82.00;40.03;;;5.40;99.90;;;;;;4915639;29;20500;-48
2022/03/16 04:47:38;;;;;;;74.85;39.58;;;5.30;99.90;;;;;;4915451;29;20103;-46
2022/03/16 04:50:05;;;;;;;74.25;40.10;;;5.30;99.90;;;;;;4915689;29;20028;-48
2022/03/16 04:52:31;;;;;;;75.60;37.97;;;5.30;99.90;;;;;;4915471;29;20039;-46
2022/03/16 04:54:56;;;;;;;78.05;39.03;;;5.30;99.90;;;;;;4915420;29;20036;-47
2022/03/16 04:57:22;;;;;;;79.45;40.15;;;5.30;99.90;;;;;;4915198;29;20028;-48
2022/03/16 04:59:47;;;;;;;81.50;40.40;;;5.20;99.90;;;;;;4915323;29;20068;-47
2022/03/16 05:02:13;;;;;;;76.43;38.08;;;5.30;99.90;;;;;;4915743;29;20047;-47
2022/03/16 05:04:38;;;;;;;81.85;39.35;;;5.20;99.90;;;;;;4915319;29;20040;-49
2022/03/16 05:07:04;;;;;;;91.35;39.28;;;5.20;99.90;;;;;;4915575;29;20070;-47
2022/03/16 05:09:29;;;;;;;83.45;39.55;;;5.20;99.90;;;;;;4915203;29;20543;-45
2022/03/16 05:11:55;;;;;;;90.28;40.35;;;5.10;99.90;;;;;;4914971;29;20028;-47
2022/03/16 05:14:21;;;;;;;89.10;39.83;;;5.10;99.90;;;;;;4915994;29;20156;-52
2022/03/16 05:16:46;;;;;;;112.78;42.22;;;5.10;99.90;;;;;;4898350;29;20035;-47
2022/03/16 05:19:12;;;;;;;85.80;40.53;;;5.10;99.90;;;;;;4915114;29;20029;-47
2022/03/16 05:21:37;;;;;;;88.15;41.65;;;5.00;99.90;;;;;;4915408;29;20032;-50
2022/03/16 05:24:03;;;;;;;86.53;40.67;;;4.90;99.90;;;;;;4915255;29;20035;-50
2022/03/16 05:26:28;;;;;;;92.32;40.17;;;4.90;99.90;;;;;;4915104;29;20506;-47
2022/03/16 05:28:55;;;;;;;90.72;41.35;;;4.90;99.90;;;;;;4914995;29;20047;-48
2022/03/16 05:31:21;;;;;;;96.43;43.22;;;4.90;99.90;;;;;;4915229;29;20065;-46
2022/03/16 05:33:48;;;;;;;92.00;42.20;;;4.90;99.90;;;;;;4915137;29;20375;-49
2022/03/16 05:36:13;;;;;;;96.55;42.15;;;4.90;99.90;;;;;;4914938;29;20021;-47
2022/03/16 05:38:39;;;;;;;96.32;43.08;;;4.90;99.90;;;;;;4914903;29;20032;-46
2022/03/16 05:41:05;;;;;;;87.68;42.60;;;4.90;99.90;;;;;;4915024;29;20473;-48
2022/03/16 05:43:30;;;;;;;87.68;41.53;;;5.00;99.90;;;;;;4917707;29;20024;-47
2022/03/16 05:45:56;;;;;;;82.53;39.97;;;5.00;99.90;;;;;;4918644;29;20095;-50
2022/03/16 05:48:21;;;;;;;97.68;42.88;;;5.00;99.90;;;;;;4918500;29;20460;-47
2022/03/16 05:50:47;;;;;;;100.57;42.78;;;4.90;99.90;;;;;;4918846;29;20102;-45
2022/03/16 05:53:14;;;;;;;100.30;40.30;;;4.90;99.90;;;;;;4917527;29;20488;-48
2022/03/16 05:55:40;;;;;;;98.43;40.95;;;4.90;99.90;;;;;;4918465;29;20096;-51
2022/03/16 05:58:06;;;;;;;96.15;41.33;;;4.90;99.90;;;;;;4918325;29;20091;-50
2022/03/16 06:00:32;;;;;;;107.13;40.83;;;4.80;99.90;;;;;;4918787;29;20020;-47
2022/03/16 06:02:58;;;;;;;93.07;40.90;;;4.80;99.90;;;;;;4919557;29;20151;-47
2022/03/16 06:05:24;;;;;;;93.95;40.17;;;4.70;99.90;;;;;;4919472;29;20043;-51
2022/03/16 06:07:50;;;;;;;92.03;39.95;;;4.70;99.90;;;;;;4919873;29;20055;-49
2022/03/16 06:10:17;;;;;;;89.03;38.40;;;4.80;99.90;;;;;;4919521;29;20032;-47
2022/03/16 06:13:03;;;;;;;106.32;40.38;;;4.80;99.90;;;;;;4918760;29;20091;-46
2022/03/16 06:15:36;;;;;;;94.53;41.33;;;4.80;99.90;;;;;;4917718;29;20036;-45
2022/03/16 06:18:02;;;;;;;97.57;41.17;;;4.80;99.90;;;;;;4918317;29;20028;-46
2022/03/16 06:20:28;;;;;;;103.78;41.53;;;4.90;99.90;;;;;;4918716;29;20400;-48
2022/03/16 06:22:54;;;;;;;102.15;41.88;;;4.90;99.90;;;;;;4918519;29;20032;-49
2022/03/16 06:25:20;;;;;;;110.38;41.13;;;4.90;99.90;;;;;;4917926;29;20039;-46
2022/03/16 06:27:45;;;;;;;138.85;45.13;;;4.90;99.90;;;;;;4916484;29;20030;-48
2022/03/16 06:30:11;;;;;;;106.03;44.28;;;4.80;99.90;;;;;;4916768;29;20040;-48
2022/03/16 06:32:37;;;;;;;97.32;41.65;;;4.90;99.90;;;;;;4917784;29;20042;-48
2022/03/16 06:35:05;;;;;;;101.45;41.13;;;4.90;99.90;;;;;;4917769;29;20032;-51
2022/03/16 06:37:31;;;;;;;96.10;41.08;;;4.90;99.90;;;;;;4917517;29;20076;-50
2022/03/16 06:39:56;;;;;;;102.40;38.97;;;4.90;99.90;;;;;;4917747;29;20119;-45
2022/03/16 06:42:22;;;;;;;98.53;40.50;;;4.90;99.90;;;;;;4917756;29;20437;-48
2022/03/16 06:44:47;;;;;;;95.00;37.33;;;4.90;99.90;;;;;;4917401;29;20024;-46
2022/03/16 06:47:13;;;;;;;104.50;38.30;;;4.90;99.90;;;;;;4916058;29;20116;-52
2022/03/16 06:49:38;;;;;;;106.43;36.90;;;4.90;99.90;;;;;;4916093;29;20028;-47
2022/03/16 06:52:04;;;;;;;97.40;37.88;;;4.80;99.90;;;;;;4917522;29;20404;-45
2022/03/16 06:54:30;;;;;;;105.57;37.17;;;4.80;99.90;;;;;;4916909;29;20120;-48
2022/03/16 06:56:55;;;;;;;95.57;38.78;;;4.90;99.90;;;;;;4917365;29;20470;-49
2022/03/16 06:59:21;;;;;;;85.75;36.90;;;4.90;99.90;;;;;;4917286;29;20024;-47
2022/03/16 07:01:46;;;;;;;88.65;35.17;;;5.00;99.90;;;;;;4916502;29;20043;-48
2022/03/16 07:04:12;;;;;;;90.95;37.10;;;4.90;99.90;;;;;;4917108;29;20032;-48
2022/03/16 07:06:37;;;;;;;87.97;36.63;;;4.90;99.90;;;;;;4917207;29;20092;-50
2022/03/16 07:09:03;;;;;;;81.07;33.47;;;5.00;99.90;;;;;;4917006;29;20028;-49
2022/03/16 07:11:28;;;;;;;80.53;35.60;;;5.00;99.90;;;;;;4917132;29;20407;-48
2022/03/16 07:16:38;;;;;;;64.25;31.58;;;5.10;99.90;;;;;;4917033;29;20460;-47
2022/03/16 07:19:03;;;;;;;59.55;31.38;;;5.20;99.90;;;;;;4916828;29;20020;-47
2022/03/16 07:21:29;;;;;;;61.88;30.60;;;5.20;99.90;;;;;;4915634;29;20133;-47
2022/03/16 07:23:54;;;;;;;59.88;31.58;;;5.30;99.90;;;;;;4915579;29;20115;-48
2022/03/16 07:26:20;;;;;;;60.38;32.65;;;5.40;99.90;;;;;;4916700;29;20032;-47
2022/03/16 07:28:46;;;;;;;56.38;31.25;;;5.40;99.90;;;;;;4916428;29;20492;-49
2022/03/16 07:31:11;;;;;;;60.20;28.98;;;5.40;99.90;;;;;;4916572;29;20031;-51
2022/03/16 07:33:37;;;;;;;54.60;28.75;;;5.40;99.90;;;;;;4916605;29;20054;-48
2022/03/16 07:36:04;;;;;;;54.40;31.08;;;5.50;99.90;;;;;;4916465;29;20028;-48
2022/03/16 07:38:29;;;;;;;51.67;29.02;;;5.50;99.90;;;;;;4916351;29;20085;-50
2022/03/16 07:40:55;;;;;;;49.85;28.10;;;5.70;99.90;;;;;;4916532;29;20488;-49
2022/03/16 07:43:20;;;;;;;48.55;26.90;;;5.80;99.90;;;;;;4916466;29;20382;-46
2022/03/16 07:45:46;;;;;;;44.50;26.23;;;6.10;99.90;;;;;;4916349;29;20032;-48
2022/03/16 07:48:12;;;;;;;49.45;26.58;;;6.20;99.90;;;;;;4916252;29;20416;-47
2022/03/16 07:50:37;;;;;;;44.90;26.05;;;6.20;99.90;;;;;;4916630;29;20071;-47
2022/03/16 07:53:03;;;;;;;47.33;27.15;;;6.30;99.90;;;;;;4916539;29;20385;-48
2022/03/16 07:55:29;;;;;;;45.00;25.45;;;6.40;99.90;;;;;;4916221;29;20028;-51
2022/03/16 07:57:55;;;;;;;43.13;26.63;;;6.50;99.90;;;;;;4916172;29;20024;-53
2022/03/16 08:00:21;;;;;;;42.17;24.25;;;6.50;99.90;;;;;;4916435;29;20021;-48
2022/03/16 08:02:47;;;;;;;39.10;23.67;;;6.60;99.90;;;;;;4915080;29;20031;-48
2022/03/16 08:05:15;;;;;;;43.83;25.02;;;6.70;99.90;;;;;;4915520;29;20579;-52
2022/03/16 08:07:41;;;;;;;42.80;24.60;;;6.90;99.90;;;;;;4915987;29;20031;-47
2022/03/16 08:10:07;;;;;;;39.78;23.67;;;7.10;99.90;;;;;;4916094;29;20111;-51
2022/03/16 08:12:33;;;;;;;33.78;22.50;;;7.30;99.90;;;;;;4915921;29;20104;-50
2022/03/16 08:15:00;;;;;;;33.47;23.05;;;7.40;99.90;;;;;;4915927;29;20039;-51
2022/03/16 08:17:26;;;;;;;37.50;23.83;;;7.40;99.90;;;;;;4915801;29;20016;-49
2022/03/16 08:19:51;;;;;;;34.25;22.98;;;7.30;99.90;;;;;;4916521;29;20064;-48
2022/03/16 08:22:26;;;;;;;36.83;23.90;;;7.10;99.90;;;;;;4915766;29;20365;-46
2022/03/16 08:24:53;;;;;;;35.13;23.33;;;7.20;99.90;;;;;;4916121;29;20032;-49
2022/03/16 08:27:19;;;;;;;36.47;22.88;;;7.30;99.90;;;;;;4915831;29;20076;-48
2022/03/16 08:29:44;;;;;;;32.58;21.80;;;7.30;99.90;;;;;;4915948;29;20573;-52
2022/03/16 08:32:10;;;;;;;34.53;21.65;;;7.40;99.90;;;;;;4916137;29;20103;-47
2022/03/16 08:34:35;;;;;;;37.03;21.08;;;7.40;99.90;;;;;;4914960;29;20032;-47
2022/03/16 08:37:01;;;;;;;35.70;22.30;;;7.40;99.90;;;;;;4915621;29;20085;-47
2022/03/16 08:39:27;;;;;;;33.97;20.70;;;7.50;99.90;;;;;;4915608;29;20032;-47
2022/03/16 08:41:52;;;;;;;37.55;21.58;;;7.50;99.90;;;;;;4916441;29;20275;-49
2022/03/16 08:44:18;;;;;;;33.13;22.92;;;7.50;99.90;;;;;;4916597;29;20484;-48
2022/03/16 08:46:43;;;;;;;30.77;20.58;;;7.50;99.90;;;;;;4916430;29;20115;-49
2022/03/16 08:49:09;;;;;;;30.42;21.85;;;7.50;99.90;;;;;;4916490;29;20080;-47
2022/03/16 08:51:34;;;;;;;33.03;21.27;;;7.50;99.90;;;;;;4916199;29;20492;-48
2022/03/16 08:54:00;;;;;;;31.00;20.45;;;7.50;99.90;;;;;;4916240;29;20024;-48
2022/03/16 08:56:25;;;;;;;31.23;20.52;;;7.50;99.90;;;;;;4916399;29;20032;-46
2022/03/16 08:58:50;;;;;;;28.13;20.10;;;7.70;99.90;;;;;;4915483;29;20032;-47
2022/03/16 09:01:16;;;;;;;27.33;19.58;;;7.90;99.90;;;;;;4915593;29;20404;-48
2022/03/16 09:03:41;;;;;;;31.05;21.33;;;7.90;99.90;;;;;;4914566;29;20053;-49
2022/03/16 09:06:08;;;;;;;30.00;21.13;;;7.80;99.90;;;;;;4951121;23;20129;-40
2022/03/16 09:08:34;;;;;;;30.48;21.27;;;7.80;99.90;;;;;;4933904;29;20027;-45
2022/03/16 09:10:59;;;;;;;29.02;21.38;;;7.90;99.90;;;;;;4935077;29;20032;-48
2022/03/16 09:13:25;;;;;;;29.52;21.17;;;8.50;99.90;;;;;;4934579;29;20032;-44
2022/03/16 09:15:51;;;;;;;25.63;18.13;;;8.60;99.90;;;;;;4921558;29;20031;-45
2022/03/16 09:18:20;;;;;;;25.23;18.40;;;9.10;99.90;;;;;;4918713;29;20076;-43
2022/03/16 09:20:46;;;;;;;26.20;17.95;;;9.70;99.90;;;;;;4919048;29;20059;-42
2022/03/16 09:23:12;;;;;;;21.45;16.67;;;10.10;99.90;;;;;;4919188;29;20028;-45
2022/03/16 09:25:41;;;;;;;25.58;19.88;;;10.60;99.90;;;;;;4919028;29;20091;-45
2022/03/16 09:28:08;;;;;;;21.63;16.27;;;11.30;99.90;;;;;;4918726;29;20031;-49
2022/03/16 09:30:34;;;;;;;20.38;15.50;;;11.70;99.90;;;;;;4919454;29;20043;-46
2022/03/16 09:33:00;;;;;;;20.05;16.50;;;12.20;99.90;;;;;;4919050;29;20079;-45
2022/03/16 09:35:27;;;;;;;18.70;14.48;;;12.20;99.90;;;;;;4918914;29;20038;-48
2022/03/16 09:37:54;;;;;;;18.88;15.07;;;12.30;99.90;;;;;;4918672;29;20399;-47
2022/03/16 09:40:20;;;;;;;20.05;16.23;;;12.60;99.90;;;;;;4918465;29;20039;-45
2022/03/16 09:42:48;;;;;;;17.80;14.45;;;12.90;99.90;;;;;;4918934;29;20023;-49
2022/03/16 09:45:19;;;;;;;16.15;13.23;;;13.30;99.90;;;;;;4918943;29;20036;-44
2022/03/16 09:47:46;;;;;;;18.63;14.77;;;13.60;99.90;;;;;;4918855;29;20032;-44
2022/03/16 09:50:12;;;;;;;17.75;14.70;;;13.50;99.90;;;;;;4918961;29;20380;-42
2022/03/16 09:52:39;;;;;;;20.25;15.60;;;13.20;99.90;;;;;;4919549;29;20060;-44
2022/03/16 09:55:06;;;;;;;19.55;15.25;;;13.00;99.90;;;;;;4919289;29;20032;-45
2022/03/16 09:57:32;;;;;;;18.30;15.52;;;12.80;99.90;;;;;;4918824;29;20497;-50
2022/03/16 09:59:57;;;;;;;19.20;16.25;;;12.40;99.90;;;;;;4918735;29;20028;-42
2022/03/16 10:02:25;;;;;;;19.80;16.27;;;12.30;99.90;;;;;;4918558;29;20016;-49
2022/03/16 10:04:53;;;;;;;21.23;16.73;;;11.80;99.90;;;;;;4918414;29;20035;-48
2022/03/16 10:07:29;;;;;;;20.55;16.88;;;11.90;99.90;;;;;;4918374;29;20559;-47
2022/03/16 10:15:24;;;;;;;21.75;15.90;;;11.10;99.90;;;;;;4918376;29;20039;-44
2022/03/16 10:17:59;;;;;;;19.67;16.13;;;11.00;99.90;;;;;;4917843;29;20381;-48
2022/03/16 10:20:35;;;;;;;18.23;15.15;;;11.10;99.90;;;;;;4918138;29;20024;-46
2022/03/16 10:23:10;;;;;;;18.40;15.73;;;11.30;99.90;;;;;;4918187;29;20032;-45
2022/03/16 10:25:52;;;;;;;19.73;15.23;;;11.50;99.90;;;;;;4918003;29;20025;-43
2022/03/16 10:28:24;;;;;;;16.58;14.00;;;11.60;99.90;;;;;;4917869;29;20056;-44
2022/03/16 10:30:55;;;;;;;20.58;14.57;;;11.70;99.90;;;;;;4918923;29;20548;-40
2022/03/16 10:33:26;;;;;;;18.30;14.77;;;11.70;99.90;;;;;;4919253;29;20032;-42
2022/03/16 10:35:55;;;;;;;14.35;12.68;;;12.00;99.90;;;;;;4915990;29;20028;-45
2022/03/16 10:38:22;;;;;;;13.90;12.35;;;12.10;99.90;;;;;;4916646;29;20028;-46
2022/03/16 10:40:49;;;;;;;13.60;11.60;;;12.00;99.90;;;;;;4917836;29;20035;-46
2022/03/16 10:46:34;;;;;;;15.35;11.88;;;12.00;99.90;;;;;;4917971;29;20043;-48
2022/03/16 10:49:09;;;;;;;14.30;11.65;;;12.10;99.90;;;;;;4917124;29;20492;-50
2022/03/16 10:51:35;;;;;;;;;;;12.10;99.90;;;;;;4918123;29;20040;-46
2022/03/16 10:54:02;;;;;;;;;;;12.10;99.90;;;;;;4918272;29;19907;-47
2022/03/16 10:56:28;;;;;;;18.98;12.32;;;12.10;99.90;;;;;;4917305;29;20259;-51
2022/03/16 10:58:54;;;;;;;16.77;12.15;;;12.20;99.90;;;;;;4916012;29;20396;-50
2022/03/16 11:01:22;;;;;;;13.60;11.20;;;12.30;99.90;;;;;;4917614;29;20510;-50
2022/03/16 11:03:49;;;;;;;15.98;11.57;;;12.30;99.90;;;;;;4917464;29;20029;-50
2022/03/16 11:06:20;;;;;;;13.35;11.75;;;12.20;99.90;;;;;;4917501;29;20103;-46
2022/03/16 11:08:46;;;;;;;12.93;11.52;;;12.20;99.90;;;;;;4917393;29;20032;-51
2022/03/16 11:13:58;;;;;;;13.00;11.15;;;12.20;99.90;;;;;;4917216;29;20036;-46
2022/03/16 11:16:24;;;;;;;14.15;11.25;;;12.20;99.90;;;;;;4916965;29;20036;-45
2022/03/16 11:18:51;;;;;;;15.63;11.82;;;12.30;99.90;;;;;;4916921;29;20020;-45
2022/03/16 11:21:29;;;;;;;13.40;12.02;;;12.20;99.90;;;;;;4916918;29;20104;-50
2022/03/16 11:26:54;;;;;;;14.05;11.45;;;12.20;99.90;;;;;;4916808;29;20096;-46
2022/03/16 11:29:41;;;;;;;15.27;11.55;;;12.30;99.90;;;;;;4916658;29;20036;-49
2022/03/16 11:32:15;;;;;;;13.57;11.77;;;12.40;99.90;;;;;;4916967;29;20036;-46
2022/03/16 11:34:55;;;;;;;13.20;11.50;;;12.50;99.90;;;;;;4916858;29;20039;-46
2022/03/16 11:37:33;;;;;;;13.35;11.95;;;12.50;99.90;;;;;;4916488;29;20086;-46
2022/03/16 11:40:11;;;;;;;13.57;10.48;;;12.60;99.90;;;;;;4918155;29;20484;-45
2022/03/16 11:43:04;;;;;;;14.52;11.93;;;12.50;99.90;;;;;;4917038;29;20035;-41
2022/03/16 11:45:34;;;;;;;13.48;11.63;;;12.40;99.90;;;;;;4916336;29;20035;-51
2022/03/16 11:48:20;;;;;;;13.10;11.70;;;12.50;99.90;;;;;;4916298;29;20024;-42
2022/03/16 11:51:05;;;;;;;14.10;12.10;;;12.50;99.90;;;;;;4915104;29;20032;-43
2022/03/16 11:53:46;;;;;;;;;;;12.70;99.90;;;;;;4917015;29;20530;-47
2022/03/16 11:56:23;;;;;;;14.10;11.65;;;12.60;99.90;;;;;;4916425;29;19957;-46
2022/03/16 11:58:55;;;;;;;13.35;11.02;;;12.70;99.90;;;;;;4917202;29;20028;-44
2022/03/16 12:01:27;;;;;;;12.85;11.45;;;12.80;99.90;;;;;;4917464;29;20028;-42
2022/03/16 12:04:15;;;;;;;13.52;11.90;;;12.80;99.90;;;;;;4918872;29;20423;-49
2022/03/16 12:07:05;;;;;;;13.18;11.50;;;12.70;99.90;;;;;;4916507;29;20032;-45
2022/03/16 12:09:33;;;;;;;13.48;11.23;;;12.60;99.90;;;;;;4916450;29;20028;-48
2022/03/16 12:15:12;;;;;;;13.23;11.60;;;12.60;99.90;;;;;;4916987;29;20135;-47
2022/03/16 12:17:37;;;;;;;14.30;12.73;;;12.70;99.90;;;;;;4916519;29;20016;-45
2022/03/16 12:20:10;;;;;;;13.02;11.50;;;12.70;99.90;;;;;;4916436;29;20035;-42
2022/03/16 12:22:47;;;;;;;13.00;10.70;;;12.70;99.90;;;;;;4916685;29;20035;-47
2022/03/16 12:25:26;;;;;;;14.27;11.63;;;12.90;99.90;;;;;;4916879;29;20388;-47
2022/03/16 12:31:00;;;;;;;12.77;11.35;;;13.00;99.90;;;;;;4917197;29;20165;-46
2022/03/16 12:33:28;;;;;;;14.35;11.68;;;13.20;99.90;;;;;;4916913;29;20036;-46
2022/03/16 12:35:59;;;;;;;11.93;10.82;;;13.40;99.90;;;;;;4916428;29;20381;-43
2022/03/16 12:38:31;;;;;;;16.08;10.73;;;13.50;99.90;;;;;;4916302;29;20107;-45
2022/03/16 12:43:46;;;;;;;13.73;10.73;;;13.50;99.90;;;;;;4916544;29;20032;-49
2022/03/16 12:46:37;;;;;;;13.40;10.38;;;13.60;99.90;;;;;;4916149;29;20028;-44
2022/03/16 12:49:02;;;;;;;13.80;11.20;;;13.60;99.90;;;;;;4915729;29;20412;-43
2022/03/16 12:51:43;;;;;;;12.93;11.52;;;13.60;99.90;;;;;;4915592;29;20028;-49
2022/03/16 12:54:09;;;;;;;12.48;11.18;;;13.70;99.90;;;;;;4916560;29;20035;-48
2022/03/16 12:56:42;;;;;;;14.93;10.88;;;13.70;99.90;;;;;;4915876;29;20031;-46
2022/03/16 12:59:09;;;;;;;12.73;11.43;;;13.60;99.90;;;;;;4915964;29;20103;-46